Terminal Aerodrome Forecast
Issued by NWS

Home | Current Version | Previous Version | Text Only | Print | Product List | Glossary On
Versions: 1 2 3 4 5 6 7 8 9 10 11 12 13 14 15 16 17 18 19 20 21 22 23
000
FTUS41 KBTV 261829 AAA
TAFSLK
TAF AMD
KSLK 261829Z 2618/2718 VRB03KT 1SM -SN BR BKN015 OVC025
      TEMPO 2620/2624 1/2SM SN FG OVC012
     FM270600 VRB03KT P6SM VCSH OVC020
     FM271400 35006KT P6SM BKN025 OVC040=

USA.gov is the U.S. government's official web portal to all federal, state and local government web resources and services.